| Record Date MM/DD/YYYY | Record Time HH:MM:SS | Record Julian Date NNN day of the year | Air Temperature Max (Degrees Fahrenheit F) | Time Max Air Temperature HH:MM:SS This is the time of max air temp for the prior hour interval listed for record [Time]. | Air Temperature Min (Degrees Fahrenheit F) | Time Min Air Temperature HH:MM:SS This is the time of min air temp for the prior hour interval listed for record [Time]. | Air Temperature Observed (Degrees Fahrenheit F) This is an instantaneous reading at the record [Time]. | Relative Humidity Max (Percent) | Time Max Relative Humidity HH:MM:SS This is the time of max relative humidity for the prior hour interval listed for record [Time]. | Relative Humidity Min (Percent) | Time Min Relative Humidity HH:MM:SS This is the time of min relative humidity for the prior hour interval listed for record [Time]. | Relative Humidity Observed (Percent) This is an instantaneous reading at the record [Time]. | Precipitation (Inches n.nn) rain fall that occurred during the prior hour interval listed for record [Time]. | Wind Speed (Miles Per Hour) Resultant Speed that occurred during the prior hour interval listed for record [Time]. | Wind Direction (Degrees) Resultant Direction that occurred during the prior hour interval listed for record [Time]. | Solar Radiation (Langley's) that occurred during the prior hour interval listed for record [Time]. | Soil Temperature Average at 2 inch depth (Degrees Fahrenheit F) that occurred during the prior hour interval listed for record [Time]. | Soil Temperature Observed at 2 inch depth (Degrees Fahrenheit F) This is an instantaneous reading at the record [Time]. | Soil Temperature Average at 4 inch depth (Degrees Fahrenheit F) that occurred during the prior hour interval listed for record [Time]. | Soil Temperature Observed at 4 inch depth (Degrees Fahrenheit F) This is an instantaneous reading at the record [Time]. |
|---|---|---|---|---|---|---|---|---|---|---|---|---|---|---|---|---|---|---|---|---|
| 04/25/2026 | 0:00:00 | 115 | 65 | 23:00:01 | 64 | 23:32:03 | 64 | 92 | 23:34:04 | 90 | 23:53:03 | 90.6 | 0 | 4.4 | 199 | 0 | 70 | 70 | 71 | 71 |
| 04/25/2026 | 1:00:00 | 115 | 64 | 0:00:03 | 64 | 0:58:00 | 64 | 91 | 0:59:05 | 90 | 0:16:05 | 91.2 | 0 | 5.2 | 257 | 0 | 69 | 69 | 70 | 70 |
| 04/25/2026 | 2:00:00 | 115 | 64 | 1:00:01 | 63 | 1:26:03 | 63 | 93 | 1:46:00 | 91 | 1:00:05 | 92.8 | 0.01 | 4.5 | 309 | 0 | 69 | 69 | 70 | 70 |
| 04/25/2026 | 3:00:00 | 115 | 64 | 2:17:01 | 63 | 2:03:05 | 64 | 93 | 2:00:02 | 92 | 2:38:05 | 92.6 | 0.02 | 4.0 | 274 | 0 | 68 | 68 | 69 | 69 |
| 04/25/2026 | 4:00:00 | 115 | 64 | 3:00:01 | 63 | 3:36:02 | 63 | 93 | 3:59:00 | 92 | 3:03:00 | 92.9 | 0.1 | 4.5 | 250 | 0 | 68 | 68 | 69 | 69 |
| 04/25/2026 | 5:00:00 | 115 | 63 | 4:00:00 | 63 | 4:57:00 | 63 | 94 | 4:58:04 | 93 | 4:08:05 | 93.5 | 0.14 | 2.8 | 198 | 0 | 68 | 67 | 69 | 68 |
| 04/25/2026 | 6:00:00 | 115 | 63 | 5:56:03 | 62 | 5:34:03 | 63 | 94 | 5:55:04 | 93 | 5:00:04 | 94.2 | 0 | 2.9 | 156 | 1 | 67 | 67 | 68 | 68 |
| 04/25/2026 | 7:00:00 | 115 | 64 | 6:59:03 | 63 | 6:03:00 | 63 | 94 | 6:19:02 | 94 | 6:58:03 | 94 | 0 | 4.4 | 7 | 7 | 67 | 67 | 68 | 68 |
| 04/25/2026 | 8:00:00 | 115 | 65 | 7:59:04 | 63 | 7:00:00 | 65 | 94 | 7:00:05 | 91 | 7:58:05 | 91.1 | 0 | 1.8 | 77 | 16 | 68 | 68 | 68 | 68 |
| 04/25/2026 | 9:00:00 | 115 | 66 | 8:49:04 | 65 | 8:13:00 | 66 | 91 | 8:00:05 | 88 | 8:52:04 | 88.5 | 0 | 2.8 | 150 | 18 | 69 | 69 | 68 | 68 |
| 04/25/2026 | 10:00:00 | 115 | 70 | 9:59:05 | 66 | 9:01:03 | 70 | 89 | 9:08:05 | 82 | 9:59:01 | 82.1 | 0 | 1.5 | 167 | 30 | 70 | 70 | 69 | 69 |
| 04/25/2026 | 11:00:00 | 115 | 73 | 10:55:01 | 70 | 10:00:00 | 72 | 83 | 10:01:03 | 76 | 10:45:03 | 77.98 | 0 | 1.7 | 25 | 58 | 72 | 74 | 70 | 70 |
| 04/25/2026 | 12:00:00 | 115 | 74 | 11:52:02 | 72 | 11:12:04 | 74 | 81 | 11:01:04 | 73 | 11:57:00 | 74.45 | 0 | 4.3 | 302 | 73 | 75 | 77 | 71 | 72 |
| 04/25/2026 | 13:00:00 | 115 | 77 | 12:42:00 | 74 | 12:05:01 | 77 | 77 | 12:07:03 | 67 | 13:00:00 | 67.16 | 0 | 4.0 | 281 | 67 | 78 | 79 | 73 | 74 |
| 04/25/2026 | 14:00:00 | 115 | 79 | 13:40:04 | 76 | 13:14:00 | 78 | 72 | 13:17:05 | 65 | 13:41:05 | 68.64 | 0 | 3.6 | 323 | 51 | 80 | 80 | 75 | 75 |
| 04/25/2026 | 15:00:00 | 115 | 81 | 14:57:04 | 78 | 14:00:00 | 81 | 69 | 14:01:05 | 63 | 14:33:03 | 66.36 | 0 | 4.0 | 316 | 49 | 81 | 81 | 76 | 76 |
| 04/25/2026 | 16:00:00 | 115 | 81 | 15:00:02 | 78 | 15:26:01 | 80 | 69 | 15:00:00 | 64 | 15:59:05 | 64.49 | 0 | 4.6 | 293 | 25 | 81 | 80 | 77 | 77 |
| 04/25/2026 | 17:00:00 | 115 | 81 | 16:02:02 | 79 | 16:34:05 | 80 | 68 | 16:34:02 | 62 | 16:02:05 | 64.43 | 0 | 2.8 | 308 | 18 | 80 | 79 | 77 | 77 |
| 04/25/2026 | 18:00:00 | 115 | 80 | 17:01:01 | 78 | 17:59:04 | 78 | 68 | 17:54:01 | 63 | 17:07:04 | 67.66 | 0 | 4.1 | 298 | 14 | 79 | 78 | 77 | 77 |
| 04/25/2026 | 19:00:00 | 115 | 78 | 18:00:00 | 71 | 18:59:05 | 71 | 85 | 19:00:00 | 68 | 18:00:00 | 84.6 | 0 | 0.4 | 311 | 1 | 77 | 76 | 76 | 76 |
| 04/25/2026 | 20:00:00 | 115 | 71 | 19:00:03 | 68 | 19:59:00 | 68 | 90 | 19:59:05 | 84 | 19:05:02 | 89.8 | 0 | 0.0 | 0 | 0 | 76 | 75 | 76 | 75 |
| 04/25/2026 | 21:00:00 | 115 | 68 | 20:02:04 | 67 | 20:59:04 | 67 | 92 | 20:48:02 | 90 | 20:05:05 | 91.8 | 0 | 0.0 | 95 | 0 | 74 | 74 | 75 | 74 |
| 04/25/2026 | 22:00:00 | 115 | 67 | 21:31:02 | 66 | 21:58:00 | 66 | 93 | 21:59:05 | 92 | 21:00:01 | 93.2 | 0 | 0.0 | 0 | 0 | 73 | 73 | 74 | 73 |
| 04/25/2026 | 23:00:00 | 115 | 67 | 22:08:03 | 65 | 22:58:01 | 65 | 94 | 22:08:03 | 93 | 22:36:03 | 93.5 | 0 | 0.4 | 252 | 0 | 72 | 72 | 73 | 73 |
| 04/26/2026 | 0:00:00 | 116 | 65 | 23:01:03 | 65 | 23:59:01 | 65 | 94 | 23:46:05 | 93 | 23:16:04 | 93.7 | 0 | 0.8 | 76 | 0 | 72 | 71 | 72 | 72 |
| 04/26/2026 | 1:00:00 | 116 | 65 | 0:10:00 | 64 | 0:56:05 | 64 | 94 | 0:43:02 | 94 | 0:30:01 | 94.4 | 0 | 0.2 | 272 | 0 | 71 | 71 | 72 | 72 |
| 04/26/2026 | 2:00:00 | 116 | 64 | 1:15:00 | 64 | 1:58:02 | 64 | 95 | 1:52:02 | 94 | 1:19:01 | 94.5 | 0 | 0.9 | 293 | 0 | 70 | 70 | 71 | 71 |
| 04/26/2026 | 3:00:00 | 116 | 64 | 2:01:01 | 64 | 2:50:03 | 64 | 95 | 2:28:04 | 94 | 2:04:05 | 94.5 | 0 | 1.2 | 311 | 0 | 70 | 70 | 71 | 71 |
| 04/26/2026 | 4:00:00 | 116 | 64 | 3:22:04 | 63 | 3:58:02 | 63 | 95 | 3:45:02 | 94 | 3:58:04 | 94.5 | 0 | 0.8 | 306 | 0 | 69 | 69 | 70 | 70 |
| 04/26/2026 | 5:00:00 | 116 | 64 | 4:00:00 | 63 | 4:51:05 | 63 | 95 | 5:00:00 | 94 | 4:05:00 | 95.2 | 0 | 0.0 | 0 | 0 | 69 | 69 | 70 | 70 |
| 04/26/2026 | 6:00:00 | 116 | 64 | 5:59:03 | 63 | 5:00:01 | 64 | 95 | 5:12:00 | 95 | 5:22:04 | 95.2 | 0 | 0.5 | 300 | 1 | 68 | 68 | 70 | 69 |
| 04/26/2026 | 7:00:00 | 116 | 66 | 6:59:04 | 64 | 6:00:02 | 66 | 95 | 6:20:00 | 94 | 6:45:04 | 94.6 | 0 | 0.5 | 343 | 8 | 68 | 69 | 69 | 69 |
| 04/26/2026 | 8:00:00 | 116 | 71 | 7:57:03 | 66 | 7:00:01 | 70 | 95 | 7:00:00 | 86 | 8:00:00 | 85.9 | 0 | 1.6 | 84 | 16 | 69 | 69 | 69 | 69 |
| 04/26/2026 | 9:00:00 | 116 | 75 | 8:46:01 | 70 | 8:00:03 | 75 | 86 | 8:00:00 | 73 | 8:48:03 | 74.59 | 0 | 3.1 | 185 | 49 | 71 | 72 | 70 | 70 |
| 04/26/2026 | 10:00:00 | 116 | 79 | 9:46:02 | 75 | 9:00:00 | 79 | 76 | 9:01:05 | 67 | 9:57:05 | 68.32 | 0 | 2.9 | 249 | 62 | 74 | 75 | 71 | 71 |
| 04/26/2026 | 11:00:00 | 116 | 81 | 10:40:03 | 78 | 10:22:05 | 79 | 74 | 10:04:00 | 65 | 10:44:00 | 65.67 | 0 | 2.4 | 4 | 48 | 76 | 77 | 72 | 73 |
| 04/26/2026 | 12:00:00 | 116 | 82 | 11:54:01 | 79 | 11:00:03 | 81 | 69 | 11:01:03 | 64 | 11:13:05 | 64.95 | 0 | 3.3 | 131 | 67 | 78 | 79 | 74 | 74 |
| 04/26/2026 | 13:00:00 | 116 | 82 | 12:16:02 | 80 | 12:32:02 | 82 | 69 | 12:14:05 | 62 | 12:59:02 | 64.11 | 0 | 3.8 | 113 | 56 | 80 | 81 | 75 | 76 |
| 04/26/2026 | 14:00:00 | 116 | 83 | 13:59:04 | 81 | 13:28:02 | 83 | 66 | 13:10:05 | 60 | 13:49:02 | 61.16 | 0 | 3.4 | 153 | 43 | 81 | 81 | 76 | 77 |
| 04/26/2026 | 15:00:00 | 116 | 84 | 14:25:02 | 82 | 14:59:03 | 82 | 67 | 14:20:02 | 58 | 14:26:00 | 62.22 | 0 | 3.6 | 143 | 43 | 81 | 82 | 77 | 78 |
| 04/26/2026 | 16:00:00 | 116 | 83 | 15:14:04 | 81 | 15:25:05 | 82 | 65 | 15:08:00 | 60 | 15:13:00 | 61.7 | 0 | 3.3 | 141 | 27 | 82 | 81 | 78 | 78 |
| 04/26/2026 | 17:00:00 | 116 | 84 | 16:21:05 | 82 | 16:02:04 | 83 | 65 | 16:14:03 | 56 | 16:44:04 | 57.37 | 0 | 2.9 | 151 | 28 | 81 | 81 | 78 | 78 |
| 04/26/2026 | 18:00:00 | 116 | 83 | 17:04:00 | 81 | 17:59:04 | 82 | 64 | 17:59:01 | 57 | 17:00:05 | 63.56 | 0 | 2.4 | 145 | 13 | 80 | 80 | 78 | 78 |
| 04/26/2026 | 19:00:00 | 116 | 82 | 18:00:03 | 74 | 19:00:00 | 74 | 80 | 19:00:00 | 63 | 18:01:05 | 80 | 0 | 0.3 | 114 | 1 | 79 | 78 | 78 | 78 |
| 04/26/2026 | 20:00:00 | 116 | 74 | 19:00:01 | 70 | 19:59:04 | 70 | 86 | 20:00:00 | 80 | 19:00:00 | 86.4 | 0 | 0.2 | 76 | 0 | 77 | 77 | 77 | 77 |
| 04/26/2026 | 21:00:00 | 116 | 70 | 20:02:01 | 68 | 21:00:00 | 68 | 90 | 20:58:01 | 86 | 20:18:02 | 89.6 | 0 | 0.2 | 77 | 0 | 76 | 75 | 76 | 76 |
| 04/26/2026 | 22:00:00 | 116 | 68 | 21:00:01 | 67 | 21:50:03 | 67 | 92 | 21:57:04 | 90 | 21:00:01 | 92.1 | 0 | 0.1 | 101 | 0 | 75 | 74 | 75 | 75 |
| 04/26/2026 | 23:00:00 | 116 | 67 | 22:00:02 | 67 | 22:20:02 | 67 | 93 | 22:43:03 | 92 | 22:06:01 | 92.5 | 0 | 0.7 | 71 | 0 | 74 | 73 | 75 | 74 |
| 04/27/2026 | 0:00:00 | 117 | 67 | 23:09:05 | 67 | 23:55:05 | 67 | 93 | 23:00:01 | 91 | 23:33:02 | 91.6 | 0 | 1.1 | 79 | 0 | 73 | 73 | 74 | 74 |
| 04/27/2026 | 1:00:00 | 117 | 67 | 0:00:00 | 66 | 0:22:04 | 67 | 93 | 0:35:00 | 91 | 0:06:05 | 92.3 | 0 | 0.9 | 82 | 0 | 72 | 72 | 73 | 73 |
| 04/27/2026 | 2:00:00 | 117 | 67 | 1:00:03 | 66 | 1:47:03 | 66 | 93 | 1:56:02 | 92 | 1:04:05 | 92.8 | 0 | 1.1 | 75 | 0 | 72 | 71 | 73 | 72 |
| 04/27/2026 | 3:00:00 | 117 | 68 | 2:46:04 | 66 | 2:00:05 | 68 | 93 | 2:00:01 | 87 | 3:00:00 | 86.7 | 0 | 1.8 | 144 | 0 | 71 | 71 | 72 | 72 |
| 04/27/2026 | 4:00:00 | 117 | 68 | 3:00:00 | 67 | 3:57:02 | 67 | 88 | 4:00:00 | 87 | 3:00:03 | 88.3 | 0 | 1.6 | 125 | 0 | 71 | 70 | 72 | 72 |
| 04/27/2026 | 5:00:00 | 117 | 67 | 4:00:05 | 65 | 4:58:03 | 65 | 91 | 4:59:02 | 88 | 4:00:01 | 91.4 | 0 | 1.1 | 84 | 0 | 70 | 70 | 71 | 71 |
| 04/27/2026 | 6:00:00 | 117 | 66 | 5:58:04 | 65 | 5:33:00 | 66 | 93 | 5:49:05 | 91 | 5:00:03 | 92.2 | 0 | 1.6 | 101 | 2 | 70 | 70 | 71 | 71 |
| 04/27/2026 | 7:00:00 | 117 | 71 | 6:59:03 | 66 | 6:00:03 | 71 | 92 | 6:02:01 | 87 | 7:00:00 | 86.5 | 0 | 3.1 | 135 | 13 | 70 | 70 | 71 | 71 |
| 04/27/2026 | 8:00:00 | 117 | 75 | 7:59:05 | 71 | 7:00:02 | 75 | 87 | 7:01:00 | 81 | 7:57:01 | 81.8 | 0 | 4.7 | 156 | 30 | 71 | 71 | 71 | 71 |
| 04/27/2026 | 9:00:00 | 117 | 79 | 8:59:05 | 75 | 8:01:01 | 79 | 82 | 8:03:01 | 74 | 8:55:04 | 74.85 | 0 | 6.1 | 170 | 46 | 72 | 73 | 71 | 71 |
| 04/27/2026 | 10:00:00 | 117 | 81 | 9:59:03 | 79 | 9:00:02 | 81 | 76 | 9:02:03 | 68 | 9:56:00 | 68.86 | 0 | 7.6 | 156 | 60 | 74 | 75 | 72 | 72 |
| 04/27/2026 | 11:00:00 | 117 | 82 | 10:07:03 | 81 | 10:26:05 | 82 | 70 | 10:04:01 | 67 | 10:10:04 | 67.22 | 0 | 8.4 | 153 | 49 | 76 | 77 | 73 | 74 |
| 04/27/2026 | 12:00:00 | 117 | 85 | 11:57:02 | 82 | 11:02:00 | 85 | 68 | 11:09:00 | 59 | 11:58:02 | 60 | 0 | 8.2 | 159 | 55 | 77 | 78 | 74 | 75 |
| 04/27/2026 | 13:00:00 | 117 | 85 | 12:31:00 | 84 | 12:39:04 | 85 | 65 | 12:02:03 | 55 | 12:54:03 | 58.14 | 0 | 7.9 | 168 | 52 | 79 | 79 | 75 | 76 |
| 04/27/2026 | 14:00:00 | 117 | 87 | 13:56:01 | 85 | 13:29:04 | 86 | 62 | 13:47:03 | 54 | 13:11:03 | 55.32 | 0 | 7.7 | 175 | 43 | 80 | 80 | 76 | 76 |
| 04/27/2026 | 15:00:00 | 117 | 87 | 14:57:02 | 85 | 14:08:03 | 87 | 62 | 14:15:01 | 52 | 14:55:02 | 54.64 | 0 | 8.5 | 181 | 38 | 80 | 80 | 77 | 77 |
| 04/27/2026 | 16:00:00 | 117 | 88 | 15:13:05 | 86 | 15:33:05 | 87 | 59 | 15:29:02 | 53 | 15:06:04 | 55.84 | 0 | 7.7 | 181 | 35 | 80 | 80 | 77 | 77 |
| 04/27/2026 | 17:00:00 | 117 | 87 | 16:07:01 | 85 | 16:59:05 | 85 | 60 | 16:57:00 | 54 | 16:12:00 | 58.95 | 0 | 7.5 | 175 | 24 | 80 | 80 | 78 | 78 |
| 04/27/2026 | 18:00:00 | 117 | 85 | 17:00:00 | 83 | 17:52:01 | 83 | 65 | 17:56:03 | 59 | 17:03:02 | 64.89 | 0 | 4.8 | 180 | 6 | 79 | 79 | 78 | 77 |
| 04/27/2026 | 19:00:00 | 117 | 84 | 18:09:04 | 82 | 18:59:05 | 82 | 67 | 18:59:04 | 64 | 18:08:03 | 67.03 | 0 | 5.1 | 176 | 2 | 79 | 78 | 77 | 77 |
| 04/27/2026 | 20:00:00 | 117 | 82 | 19:00:01 | 81 | 19:59:04 | 81 | 68 | 19:22:05 | 67 | 19:55:00 | 67.14 | 0 | 5.0 | 175 | 0 | 78 | 77 | 77 | 77 |
| 04/27/2026 | 21:00:00 | 117 | 81 | 20:04:01 | 79 | 21:00:00 | 79 | 68 | 20:59:04 | 67 | 20:03:04 | 68.19 | 0 | 5.0 | 186 | 0 | 77 | 76 | 76 | 76 |
| 04/27/2026 | 22:00:00 | 117 | 79 | 21:32:00 | 79 | 21:14:01 | 79 | 68 | 21:01:01 | 66 | 21:47:00 | 66.82 | 0 | 5.6 | 188 | 0 | 76 | 76 | 76 | 76 |
| 04/27/2026 | 23:00:00 | 117 | 79 | 22:16:01 | 78 | 22:57:00 | 78 | 68 | 22:47:04 | 67 | 22:08:03 | 66.89 | 0 | 6.8 | 187 | 0 | 75 | 75 | 75 | 75 |
| 04/28/2026 | 0:00:00 | 118 | 78 | 23:00:02 | 77 | 23:57:02 | 77 | 68 | 23:57:01 | 67 | 23:15:00 | 67.53 | 0 | 6.5 | 193 | 0 | 75 | 75 | 75 | 75 |
| 04/28/2026 | 1:00:00 | 118 | 77 | 0:00:00 | 75 | 0:59:04 | 75 | 70 | 0:59:05 | 67 | 0:08:02 | 69.43 | 0 | 6.3 | 192 | 0 | 74 | 74 | 75 | 74 |
| 04/28/2026 | 2:00:00 | 118 | 75 | 1:01:03 | 74 | 1:56:03 | 74 | 70 | 1:54:01 | 69 | 1:11:01 | 70.05 | 0 | 4.5 | 184 | 0 | 74 | 74 | 74 | 74 |
| 04/28/2026 | 3:00:00 | 118 | 74 | 2:00:00 | 73 | 2:58:05 | 73 | 73 | 3:00:00 | 70 | 2:01:04 | 73.24 | 0 | 3.9 | 190 | 0 | 73 | 73 | 74 | 74 |
| 04/28/2026 | 4:00:00 | 118 | 73 | 3:01:02 | 72 | 3:58:05 | 72 | 76 | 3:59:02 | 73 | 3:05:01 | 75.71 | 0 | 4.0 | 177 | 0 | 73 | 73 | 74 | 73 |
| 04/28/2026 | 5:00:00 | 118 | 72 | 4:40:00 | 72 | 4:04:05 | 72 | 78 | 4:59:01 | 76 | 4:00:03 | 78.37 | 0 | 4.2 | 206 | 0 | 73 | 73 | 73 | 73 |
| 04/28/2026 | 6:00:00 | 118 | 72 | 5:02:00 | 72 | 5:59:05 | 72 | 82 | 5:56:03 | 78 | 5:01:02 | 81.7 | 0 | 3.4 | 206 | 0 | 72 | 72 | 73 | 73 |
| 04/28/2026 | 7:00:00 | 118 | 72 | 6:15:00 | 70 | 6:59:03 | 70 | 89 | 6:52:01 | 82 | 6:00:03 | 88.3 | 0.02 | 2.1 | 126 | 1 | 72 | 72 | 73 | 73 |
| 04/28/2026 | 8:00:00 | 118 | 71 | 7:09:04 | 69 | 7:55:02 | 70 | 90 | 7:59:02 | 88 | 7:00:01 | 89.4 | 0.03 | 3.8 | 102 | 2 | 72 | 72 | 73 | 72 |
| 04/28/2026 | 9:00:00 | 118 | 70 | 8:29:00 | 69 | 8:54:03 | 70 | 92 | 9:00:00 | 89 | 8:00:00 | 91.9 | 0.09 | 3.6 | 116 | 3 | 72 | 72 | 72 | 72 |
| 04/28/2026 | 10:00:00 | 118 | 70 | 9:57:03 | 69 | 9:12:04 | 70 | 93 | 9:51:03 | 92 | 9:02:02 | 92.9 | 0.02 | 2.5 | 119 | 5 | 72 | 72 | 72 | 72 |
| 04/28/2026 | 11:00:00 | 118 | 70 | 10:59:04 | 69 | 10:16:02 | 70 | 94 | 10:49:05 | 93 | 10:11:03 | 93.6 | 0.06 | 4.5 | 117 | 4 | 72 | 72 | 72 | 72 |
| 04/28/2026 | 12:00:00 | 118 | 70 | 11:00:00 | 69 | 11:48:03 | 70 | 94 | 11:51:00 | 93 | 11:48:04 | 93.5 | 0.02 | 4.0 | 130 | 4 | 72 | 72 | 72 | 72 |
| 04/28/2026 | 13:00:00 | 118 | 70 | 12:46:04 | 69 | 12:09:04 | 70 | 94 | 12:45:05 | 93 | 12:07:01 | 93.6 | 0.07 | 4.2 | 128 | 7 | 72 | 72 | 72 | 72 |
| 04/28/2026 | 14:00:00 | 118 | 71 | 13:56:04 | 69 | 13:01:05 | 70 | 94 | 13:14:00 | 93 | 13:59:03 | 93 | 0.03 | 5.4 | 128 | 9 | 72 | 72 | 72 | 72 |
| 04/28/2026 | 15:00:00 | 118 | 71 | 14:59:05 | 70 | 14:00:02 | 71 | 93 | 14:22:02 | 93 | 14:54:04 | 92.6 | 0 | 4.9 | 139 | 7 | 72 | 73 | 72 | 72 |
| 04/28/2026 | 16:00:00 | 118 | 71 | 15:00:00 | 71 | 15:45:00 | 71 | 93 | 15:00:00 | 91 | 15:31:00 | 92 | 0 | 5.3 | 168 | 1 | 72 | 72 | 72 | 72 |
| 04/28/2026 | 17:00:00 | 118 | 71 | 16:00:02 | 71 | 16:33:04 | 71 | 93 | 16:47:02 | 92 | 16:00:04 | 93 | 0.03 | 6.5 | 163 | 2 | 72 | 72 | 72 | 72 |
| 04/28/2026 | 18:00:00 | 118 | 71 | 17:18:04 | 71 | 17:59:05 | 71 | 93 | 17:06:05 | 92 | 17:20:04 | 92.8 | 0 | 5.3 | 128 | 5 | 72 | 72 | 72 | 72 |
| 04/28/2026 | 19:00:00 | 118 | 71 | 18:00:04 | 69 | 18:59:05 | 69 | 93 | 18:01:00 | 92 | 18:50:03 | 92.6 | 0.05 | 6.7 | 136 | 0 | 72 | 72 | 72 | 72 |
| 04/28/2026 | 20:00:00 | 118 | 69 | 19:00:00 | 68 | 19:59:02 | 68 | 93 | 19:59:05 | 93 | 19:00:01 | 93.4 | 0.08 | 6.1 | 119 | 0 | 72 | 71 | 72 | 72 |
| 04/28/2026 | 21:00:00 | 118 | 68 | 20:00:01 | 67 | 20:59:04 | 67 | 96 | 21:00:00 | 93 | 20:10:01 | 95.7 | 0.71 | 8.2 | 114 | 0 | 71 | 70 | 71 | 71 |
| 04/28/2026 | 22:00:00 | 118 | 67 | 21:42:01 | 67 | 21:00:00 | 67 | 97 | 21:55:01 | 96 | 21:00:02 | 97.2 | 0.17 | 5.5 | 139 | 0 | 70 | 70 | 71 | 70 |
| 04/28/2026 | 23:00:00 | 118 | 68 | 22:59:05 | 67 | 22:06:00 | 68 | 98 | 22:59:04 | 97 | 22:02:00 | 97.5 | 0.27 | 5.3 | 149 | 0 | 70 | 69 | 70 | 70 |
| 04/29/2026 | 0:00:00 | 119 | 69 | 23:41:04 | 68 | 23:04:02 | 69 | 98 | 23:02:01 | 97 | 23:59:05 | 97.3 | 0 | 3.3 | 115 | 0 | 69 | 70 | 70 | 70 |
| 04/29/2026 | 1:00:00 | 119 | 69 | 0:01:01 | 68 | 0:56:01 | 68 | 97 | 0:01:03 | 97 | 0:58:04 | 97.1 | 0 | 2.4 | 189 | 0 | 70 | 70 | 70 | 70 |
| 04/29/2026 | 2:00:00 | 119 | 69 | 1:12:02 | 68 | 1:26:05 | 68 | 97 | 1:02:02 | 97 | 1:59:00 | 96.6 | 0.31 | 2.9 | 53 | 0 | 70 | 70 | 70 | 70 |
| 04/29/2026 | 3:00:00 | 119 | 68 | 2:01:00 | 68 | 2:54:00 | 68 | 97 | 2:58:03 | 96 | 2:20:02 | 96.7 | 0.09 | 3.9 | 170 | 0 | 69 | 69 | 70 | 70 |
| 04/29/2026 | 4:00:00 | 119 | 68 | 3:30:03 | 68 | 3:00:00 | 68 | 97 | 3:26:00 | 97 | 3:00:00 | 96.9 | 0.1 | 2.3 | 130 | 0 | 69 | 69 | 70 | 70 |
| 04/29/2026 | 5:00:00 | 119 | 69 | 4:49:04 | 68 | 4:00:01 | 69 | 97 | 4:53:02 | 97 | 4:00:05 | 97 | 0.47 | 4.3 | 158 | 0 | 69 | 69 | 70 | 70 |
| 04/29/2026 | 6:00:00 | 119 | 69 | 5:44:05 | 69 | 5:00:01 | 69 | 97 | 5:57:01 | 97 | 5:33:02 | 97 | 0.03 | 3.8 | 151 | 0 | 69 | 69 | 70 | 70 |
| 04/29/2026 | 7:00:00 | 119 | 69 | 6:56:04 | 69 | 6:16:01 | 69 | 97 | 6:31:02 | 97 | 6:53:03 | 97 | 0 | 3.0 | 168 | 2 | 69 | 70 | 70 | 70 |
| 04/29/2026 | 8:00:00 | 119 | 72 | 7:56:00 | 69 | 7:00:01 | 72 | 97 | 7:24:05 | 97 | 7:59:05 | 96.6 | 0 | 4.6 | 188 | 21 | 70 | 70 | 70 | 70 |
| 04/29/2026 | 9:00:00 | 119 | 73 | 8:51:04 | 72 | 8:08:04 | 73 | 97 | 8:00:00 | 90 | 8:58:00 | 90 | 0 | 6.6 | 215 | 18 | 71 | 72 | 70 | 70 |
| 04/29/2026 | 10:00:00 | 119 | 75 | 9:57:01 | 73 | 9:02:01 | 75 | 90 | 9:00:02 | 88 | 9:59:01 | 87.7 | 0 | 4.6 | 225 | 13 | 72 | 72 | 71 | 71 |
| 04/29/2026 | 11:00:00 | 119 | 78 | 10:58:05 | 75 | 10:00:04 | 78 | 89 | 10:05:02 | 81 | 10:56:03 | 82.4 | 0 | 5.4 | 235 | 38 | 73 | 74 | 71 | 71 |
| 04/29/2026 | 12:00:00 | 119 | 80 | 11:58:04 | 78 | 11:02:00 | 80 | 85 | 11:06:02 | 76 | 11:41:02 | 78.37 | 0 | 7.1 | 259 | 50 | 75 | 76 | 72 | 72 |
| 04/29/2026 | 13:00:00 | 119 | 81 | 12:44:04 | 79 | 12:07:01 | 80 | 80 | 12:17:04 | 74 | 12:51:04 | 76.2 | 0 | 6.2 | 298 | 49 | 77 | 78 | 73 | 74 |
| 04/29/2026 | 14:00:00 | 119 | 80 | 13:01:04 | 79 | 13:09:05 | 79 | 82 | 13:15:03 | 76 | 13:59:02 | 76.71 | 0 | 5.9 | 326 | 28 | 78 | 78 | 74 | 75 |
| 04/29/2026 | 15:00:00 | 119 | 81 | 14:43:03 | 79 | 14:00:05 | 80 | 78 | 14:12:04 | 71 | 14:41:05 | 75.71 | 0 | 5.3 | 311 | 39 | 78 | 79 | 75 | 75 |
| 04/29/2026 | 16:00:00 | 119 | 80 | 15:00:01 | 79 | 15:32:05 | 80 | 79 | 15:42:03 | 73 | 15:57:01 | 74.45 | 0 | 6.0 | 331 | 29 | 79 | 78 | 75 | 76 |
| 04/29/2026 | 17:00:00 | 119 | 81 | 16:23:03 | 78 | 16:59:02 | 78 | 77 | 16:07:05 | 71 | 16:30:03 | 75.35 | 0 | 3.5 | 349 | 20 | 78 | 78 | 76 | 76 |
| 04/29/2026 | 18:00:00 | 119 | 78 | 17:01:04 | 75 | 18:00:00 | 75 | 80 | 17:37:01 | 75 | 17:00:02 | 77.24 | 0 | 4.8 | 353 | 2 | 78 | 77 | 76 | 76 |
| 04/29/2026 | 19:00:00 | 119 | 75 | 18:00:01 | 71 | 19:00:00 | 71 | 81 | 18:59:00 | 77 | 18:00:00 | 80.7 | 0 | 4.2 | 82 | 0 | 77 | 76 | 76 | 76 |
| 04/29/2026 | 20:00:00 | 119 | 71 | 19:00:00 | 69 | 19:57:05 | 69 | 85 | 19:47:03 | 81 | 19:00:01 | 84.7 | 0 | 2.7 | 92 | 0 | 75 | 75 | 75 | 75 |
| 04/29/2026 | 21:00:00 | 119 | 69 | 20:00:03 | 69 | 20:58:01 | 69 | 88 | 20:55:01 | 85 | 20:00:05 | 87.2 | 0 | 1.5 | 84 | 0 | 75 | 74 | 75 | 74 |
| 04/29/2026 | 22:00:00 | 119 | 69 | 21:00:01 | 68 | 21:58:01 | 68 | 90 | 21:59:05 | 87 | 21:15:01 | 90.1 | 0.03 | 1.2 | 104 | 0 | 74 | 74 | 74 | 74 |
| 04/29/2026 | 23:00:00 | 119 | 68 | 22:16:03 | 64 | 22:59:05 | 64 | 92 | 22:56:01 | 90 | 22:00:03 | 91.3 | 0.12 | 5.4 | 342 | 0 | 73 | 73 | 74 | 73 |
| 04/30/2026 | 0:00:00 | 120 | 64 | 23:00:04 | 62 | 23:59:03 | 63 | 92 | 23:50:04 | 91 | 23:55:04 | 91.6 | 0.02 | 4.8 | 11 | 0 | 72 | 72 | 73 | 73 |
| 04/30/2026 | 1:00:00 | 120 | 63 | 0:00:01 | 61 | 0:41:02 | 61 | 92 | 0:01:02 | 89 | 0:51:05 | 88.9 | 0.01 | 5.6 | 13 | 0 | 72 | 71 | 73 | 72 |
| 04/30/2026 | 2:00:00 | 120 | 62 | 1:01:01 | 60 | 1:56:04 | 60 | 91 | 1:59:05 | 89 | 1:00:02 | 90.6 | 0.07 | 4.7 | 25 | 0 | 71 | 70 | 72 | 72 |
| 04/30/2026 | 3:00:00 | 120 | 60 | 2:02:00 | 60 | 2:42:02 | 60 | 91 | 2:20:05 | 91 | 2:01:01 | 91 | 0.01 | 3.6 | 33 | 0 | 70 | 69 | 71 | 71 |
| 04/30/2026 | 4:00:00 | 120 | 60 | 3:48:03 | 59 | 3:20:02 | 60 | 92 | 3:57:04 | 91 | 3:01:03 | 92.3 | 0 | 2.0 | 11 | 0 | 69 | 69 | 71 | 71 |
| 04/30/2026 | 5:00:00 | 120 | 60 | 4:17:04 | 60 | 4:31:01 | 60 | 93 | 4:17:04 | 91 | 4:48:05 | 91.7 | 0 | 3.9 | 3 | 0 | 69 | 69 | 70 | 70 |
| 04/30/2026 | 6:00:00 | 120 | 60 | 5:00:00 | 59 | 5:59:02 | 59 | 92 | 5:20:01 | 91 | 5:59:02 | 91.3 | 0.01 | 4.7 | 2 | 1 | 68 | 68 | 70 | 70 |
| 04/30/2026 | 7:00:00 | 120 | 59 | 6:00:00 | 58 | 6:58:04 | 58 | 91 | 6:00:01 | 87 | 6:59:05 | 86.9 | 0 | 5.8 | 11 | 9 | 68 | 68 | 70 | 69 |
| 04/30/2026 | 8:00:00 | 120 | 59 | 8:00:00 | 58 | 7:01:02 | 59 | 87 | 7:04:01 | 80 | 7:59:02 | 81.5 | 0 | 6.2 | 26 | 23 | 68 | 68 | 69 | 69 |
| 04/30/2026 | 9:00:00 | 120 | 62 | 8:59:05 | 59 | 8:00:05 | 62 | 82 | 8:03:01 | 72 | 8:48:04 | 76.12 | 0 | 6.3 | 40 | 43 | 69 | 69 | 69 | 69 |
| 04/30/2026 | 10:00:00 | 120 | 64 | 9:42:04 | 61 | 9:07:02 | 64 | 76 | 9:00:03 | 68 | 10:00:00 | 67.8 | 0 | 5.1 | 45 | 49 | 70 | 70 | 69 | 70 |
| 04/30/2026 | 11:00:00 | 120 | 66 | 10:50:05 | 64 | 10:00:00 | 65 | 73 | 10:43:01 | 65 | 10:52:04 | 67.15 | 0 | 5.7 | 34 | 60 | 71 | 72 | 70 | 71 |
| 04/30/2026 | 12:00:00 | 120 | 68 | 11:46:04 | 65 | 11:09:00 | 67 | 71 | 11:02:04 | 63 | 11:51:02 | 66.88 | 0 | 5.7 | 36 | 66 | 73 | 74 | 71 | 72 |
| 04/30/2026 | 13:00:00 | 120 | 69 | 12:53:02 | 66 | 12:04:05 | 68 | 70 | 12:11:00 | 57 | 12:59:05 | 59.16 | 0 | 6.9 | 9 | 67 | 74 | 75 | 72 | 73 |
| 04/30/2026 | 14:00:00 | 120 | 70 | 13:52:03 | 68 | 13:01:00 | 69 | 67 | 13:37:05 | 56 | 13:29:04 | 59.92 | 0 | 6.8 | 14 | 59 | 76 | 76 | 73 | 73 |
| 04/30/2026 | 15:00:00 | 120 | 69 | 14:01:03 | 67 | 15:00:00 | 67 | 67 | 14:14:00 | 59 | 14:25:04 | 62.58 | 0 | 7.0 | 5 | 33 | 76 | 75 | 74 | 74 |
| 04/30/2026 | 16:00:00 | 120 | 67 | 15:10:04 | 66 | 15:56:04 | 66 | 68 | 15:26:00 | 62 | 15:00:03 | 68.07 | 0 | 5.6 | 3 | 19 | 75 | 74 | 74 | 74 |
| 04/30/2026 | 17:00:00 | 120 | 66 | 16:01:04 | 65 | 16:58:05 | 65 | 69 | 16:26:05 | 65 | 16:44:00 | 67.97 | 0 | 3.6 | 4 | 11 | 74 | 74 | 74 | 73 |
| 04/30/2026 | 18:00:00 | 120 | 65 | 17:00:00 | 63 | 17:59:03 | 63 | 70 | 17:37:00 | 67 | 17:05:03 | 69.29 | 0 | 3.2 | 0 | 4 | 73 | 73 | 73 | 73 |
| 04/30/2026 | 19:00:00 | 120 | 63 | 18:01:00 | 62 | 18:59:05 | 62 | 73 | 18:57:00 | 69 | 18:02:04 | 71.85 | 0 | 2.1 | 360 | 0 | 72 | 72 | 73 | 72 |
| 04/30/2026 | 20:00:00 | 120 | 62 | 19:31:02 | 61 | 19:58:01 | 61 | 73 | 19:59:04 | 70 | 19:30:04 | 72.75 | 0 | 2.5 | 11 | 0 | 71 | 71 | 72 | 72 |
| 04/30/2026 | 21:00:00 | 120 | 61 | 20:00:00 | 61 | 20:47:00 | 61 | 74 | 20:06:03 | 71 | 20:19:00 | 73.13 | 0 | 3.3 | 21 | 0 | 70 | 70 | 71 | 71 |
| 04/30/2026 | 22:00:00 | 120 | 61 | 21:00:01 | 60 | 21:58:01 | 60 | 78 | 21:35:04 | 73 | 21:01:00 | 77.5 | 0 | 1.1 | 28 | 0 | 69 | 69 | 71 | 71 |
| 04/30/2026 | 23:00:00 | 120 | 60 | 22:10:05 | 59 | 22:59:04 | 59 | 78 | 22:10:05 | 74 | 22:38:02 | 76.16 | 0 | 3.1 | 1 | 0 | 69 | 69 | 70 | 70 |
| 05/01/2026 | 0:00:00 | 121 | 59 | 23:01:05 | 58 | 23:59:03 | 58 | 77 | 23:54:03 | 75 | 23:24:00 | 76.71 | 0 | 3.0 | 13 | 0 | 68 | 68 | 70 | 70 |
| 05/01/2026 | 1:00:00 | 121 | 58 | 0:00:00 | 57 | 0:57:04 | 57 | 79 | 0:47:03 | 77 | 0:01:00 | 78.04 | 0 | 1.4 | 360 | 0 | 68 | 67 | 69 | 69 |
| 05/01/2026 | 2:00:00 | 121 | 57 | 1:01:04 | 57 | 1:49:01 | 57 | 78 | 1:03:04 | 77 | 1:22:02 | 77.86 | 0 | 1.2 | 16 | 0 | 67 | 67 | 69 | 69 |
| 05/01/2026 | 3:00:00 | 121 | 57 | 2:04:05 | 56 | 2:59:02 | 56 | 79 | 2:30:02 | 77 | 2:51:03 | 77.66 | 0 | 1.1 | 6 | 0 | 66 | 66 | 68 | 68 |
| 05/01/2026 | 4:00:00 | 121 | 57 | 3:17:04 | 55 | 3:59:03 | 55 | 82 | 3:54:03 | 77 | 3:08:03 | 81.1 | 0 | 1.7 | 310 | 0 | 66 | 66 | 68 | 68 |
| 05/01/2026 | 5:00:00 | 121 | 56 | 4:51:05 | 55 | 4:02:00 | 56 | 81 | 4:00:00 | 78 | 4:21:01 | 80.2 | 0 | 0.9 | 333 | 0 | 66 | 66 | 68 | 67 |
| 05/01/2026 | 6:00:00 | 121 | 56 | 5:42:01 | 55 | 5:09:02 | 56 | 83 | 5:56:00 | 80 | 5:02:02 | 82.7 | 0 | 0.8 | 311 | 1 | 66 | 65 | 67 | 67 |
| 05/01/2026 | 7:00:00 | 121 | 56 | 6:58:00 | 56 | 6:10:04 | 56 | 83 | 6:04:03 | 77 | 6:59:04 | 76.94 | 0 | 1.9 | 318 | 3 | 65 | 65 | 67 | 67 |
| 05/01/2026 | 8:00:00 | 121 | 57 | 7:59:02 | 56 | 7:10:00 | 57 | 79 | 7:04:04 | 76 | 7:53:00 | 76.46 | 0 | 2.8 | 352 | 7 | 65 | 65 | 67 | 67 |
| 05/01/2026 | 9:00:00 | 121 | 58 | 8:59:01 | 57 | 8:00:04 | 58 | 78 | 8:50:02 | 75 | 8:03:03 | 75.88 | 0 | 2.9 | 9 | 11 | 65 | 65 | 67 | 67 |
| 05/01/2026 | 10:00:00 | 121 | 61 | 9:59:05 | 58 | 9:00:00 | 61 | 77 | 9:06:00 | 70 | 9:59:02 | 71.77 | 0 | 2.9 | 12 | 22 | 66 | 66 | 67 | 67 |
| 05/01/2026 | 11:00:00 | 121 | 62 | 10:58:03 | 61 | 10:00:04 | 62 | 72 | 10:22:05 | 63 | 10:51:05 | 67.68 | 0 | 4.0 | 10 | 29 | 66 | 67 | 67 | 67 |
| 05/01/2026 | 12:00:00 | 121 | 63 | 11:32:01 | 62 | 11:53:05 | 62 | 70 | 11:01:03 | 61 | 11:14:01 | 66.46 | 0 | 4.7 | 13 | 24 | 67 | 67 | 67 | 67 |
| 05/01/2026 | 13:00:00 | 121 | 62 | 12:18:04 | 61 | 12:57:05 | 62 | 73 | 12:33:05 | 66 | 12:00:02 | 70.46 | 0 | 4.6 | 349 | 21 | 67 | 68 | 67 | 68 |
| 05/01/2026 | 14:00:00 | 121 | 63 | 13:35:05 | 61 | 13:00:04 | 63 | 74 | 13:23:05 | 64 | 13:52:05 | 66.07 | 0 | 4.3 | 13 | 31 | 68 | 68 | 68 | 68 |
| 05/01/2026 | 15:00:00 | 121 | 63 | 14:03:05 | 62 | 14:26:00 | 62 | 69 | 14:10:02 | 61 | 14:49:01 | 64.32 | 0 | 4.9 | 12 | 20 | 68 | 68 | 68 | 68 |
| 05/01/2026 | 16:00:00 | 121 | 63 | 15:22:03 | 61 | 15:58:05 | 61 | 70 | 15:44:04 | 64 | 15:12:04 | 67.05 | 0 | 3.1 | 5 | 10 | 68 | 68 | 68 | 68 |
| 05/01/2026 | 17:00:00 | 121 | 62 | 16:01:03 | 61 | 16:51:02 | 61 | 73 | 16:59:02 | 67 | 16:08:00 | 72.32 | 0 | 1.8 | 7 | 6 | 68 | 68 | 68 | 68 |
| 05/01/2026 | 18:00:00 | 121 | 61 | 17:00:03 | 60 | 17:46:00 | 60 | 81 | 17:59:05 | 71 | 17:11:05 | 80.6 | 0 | 0.7 | 23 | 2 | 68 | 67 | 68 | 68 |
| 05/01/2026 | 19:00:00 | 121 | 60 | 18:00:02 | 58 | 18:57:02 | 58 | 86 | 18:48:04 | 80 | 18:07:05 | 85.3 | 0 | 1.0 | 348 | 0 | 67 | 67 | 68 | 68 |
| 05/01/2026 | 20:00:00 | 121 | 59 | 19:11:03 | 57 | 19:41:05 | 58 | 87 | 19:29:05 | 84 | 19:52:03 | 84.6 | 0 | 1.9 | 329 | 0 | 67 | 66 | 68 | 67 |
| 05/01/2026 | 21:00:00 | 121 | 58 | 20:05:03 | 58 | 20:58:03 | 58 | 86 | 21:00:00 | 83 | 20:29:00 | 85.6 | 0 | 2.1 | 319 | 0 | 66 | 66 | 67 | 67 |
| 05/01/2026 | 22:00:00 | 121 | 58 | 21:30:01 | 58 | 21:59:04 | 58 | 86 | 21:00:00 | 82 | 21:15:02 | 85.2 | 0 | 2.0 | 312 | 0 | 66 | 66 | 67 | 67 |
| 05/01/2026 | 23:00:00 | 121 | 58 | 22:53:03 | 57 | 22:33:04 | 58 | 86 | 22:14:04 | 82 | 22:59:05 | 81.8 | 0 | 2.7 | 317 | 0 | 65 | 65 | 67 | 67 |
| 05/02/2026 | 0:00:00 | 122 | 58 | 23:13:04 | 57 | 23:52:01 | 58 | 82 | 23:40:01 | 77 | 23:59:04 | 76.87 | 0 | 3.0 | 334 | 0 | 65 | 65 | 66 | 66 |
| 05/02/2026 | 1:00:00 | 122 | 58 | 0:06:01 | 57 | 0:59:05 | 57 | 77 | 0:00:03 | 70 | 0:57:04 | 70.52 | 0 | 3.1 | 22 | 0 | 65 | 64 | 66 | 66 |
| 05/02/2026 | 2:00:00 | 122 | 57 | 1:02:03 | 57 | 1:56:05 | 57 | 71 | 1:03:00 | 66 | 1:57:01 | 67.13 | 0 | 3.2 | 14 | 0 | 64 | 64 | 66 | 66 |
| 05/02/2026 | 3:00:00 | 122 | 57 | 2:04:04 | 56 | 2:57:02 | 56 | 68 | 2:01:00 | 62 | 2:42:05 | 63.55 | 0 | 3.7 | 19 | 0 | 64 | 63 | 65 | 65 |
| 05/02/2026 | 4:00:00 | 122 | 56 | 3:01:01 | 55 | 4:00:00 | 55 | 66 | 3:02:03 | 62 | 3:14:01 | 65.37 | 0 | 2.4 | 27 | 0 | 63 | 63 | 65 | 65 |
| 05/02/2026 | 5:00:00 | 122 | 55 | 4:00:04 | 53 | 4:58:04 | 53 | 73 | 4:57:03 | 65 | 4:02:05 | 73.14 | 0 | 2.4 | 330 | 0 | 63 | 63 | 65 | 65 |
| 05/02/2026 | 6:00:00 | 122 | 54 | 5:24:00 | 53 | 5:04:00 | 54 | 73 | 5:00:04 | 68 | 5:21:04 | 69.13 | 0 | 3.1 | 343 | 2 | 62 | 62 | 64 | 64 |
| 05/02/2026 | 7:00:00 | 122 | 56 | 7:00:00 | 54 | 6:00:00 | 56 | 70 | 6:02:02 | 66 | 6:46:05 | 67.14 | 0 | 3.3 | 3 | 12 | 62 | 62 | 64 | 64 |
| 05/02/2026 | 8:00:00 | 122 | 57 | 7:59:05 | 55 | 7:01:03 | 57 | 69 | 7:14:05 | 64 | 7:58:01 | 65.34 | 0 | 3.9 | 13 | 21 | 63 | 63 | 64 | 64 |
| 05/02/2026 | 9:00:00 | 122 | 62 | 8:59:05 | 57 | 8:01:00 | 61 | 67 | 8:07:00 | 48 | 8:56:00 | 51.54 | 0 | 5.7 | 27 | 50 | 63 | 64 | 64 | 64 |
| 05/02/2026 | 10:00:00 | 122 | 65 | 9:59:05 | 61 | 9:01:02 | 65 | 57 | 9:18:00 | 44 | 9:50:03 | 52.84 | 0 | 6.9 | 25 | 64 | 65 | 66 | 65 | 65 |
| 05/02/2026 | 11:00:00 | 122 | 67 | 10:53:02 | 64 | 10:07:00 | 66 | 55 | 10:16:02 | 40 | 10:59:03 | 42.08 | 0 | 8.4 | 10 | 72 | 68 | 69 | 66 | 66 |
| 05/02/2026 | 12:00:00 | 122 | 68 | 11:24:05 | 66 | 11:03:03 | 68 | 51 | 11:05:02 | 35 | 11:35:04 | 47.26 | 0 | 8.4 | 1 | 77 | 70 | 71 | 67 | 68 |
| Average | 69.1 | 67.48 | 68.3 | 81.86 | 77.36 | 79.44 | 0.02 | 3.7 | 14.55 | 71.71 | 71.7 | 71.48 | 71.46 | |||||||
| Total | 3.19 |